createdAt,value
2022-10-02T00:00:19.843Z,12.05
2022-10-02T00:02:54.232Z,15.65
2022-10-02T00:05:40.449Z,14.73
2022-10-02T00:08:11.131Z,9.18
2022-10-02T00:10:44.834Z,14.63
2022-10-02T00:13:16.602Z,9.90
2022-10-02T00:15:43.405Z,10.02
2022-10-02T00:18:16.656Z,9.63
2022-10-02T00:20:59.101Z,13.85
2022-10-02T00:23:45.459Z,10.43
2022-10-02T00:26:20.935Z,16.38
2022-10-02T00:29:13.840Z,11.95
2022-10-02T00:31:48.140Z,11.32
2022-10-02T00:34:30.714Z,9.80
2022-10-02T00:37:28.721Z,18.40
2022-10-02T00:40:20.158Z,21.52
2022-10-02T00:42:52.554Z,11.52
2022-10-02T00:45:25.471Z,18.90
2022-10-02T00:48:22.419Z,15.77
2022-10-02T00:51:18.485Z,14.20
2022-10-02T00:54:08.126Z,15.18
2022-10-02T00:57:07.778Z,8.82
2022-10-02T00:59:52.887Z,12.93
2022-10-02T01:02:31.777Z,10.35
2022-10-02T01:05:01.248Z,17.50
2022-10-02T01:07:28.148Z,18.25
2022-10-02T01:09:55.326Z,21.52
2022-10-02T01:12:22.646Z,13.30
2022-10-02T01:14:49.665Z,17.85
2022-10-02T01:17:34.842Z,17.25
2022-10-02T01:20:04.852Z,16.23
2022-10-02T01:22:42.037Z,15.02
2022-10-02T01:25:08.819Z,15.48
2022-10-02T01:27:39.123Z,16.52
2022-10-02T01:30:15.989Z,11.18
2022-10-02T01:33:03.218Z,12.82
2022-10-02T01:35:31.931Z,13.60
2022-10-02T01:38:00.255Z,13.60
2022-10-02T01:40:32.684Z,16.33
2022-10-02T01:43:09.164Z,14.68
2022-10-02T01:45:58.324Z,16.35
2022-10-02T01:48:47.045Z,10.75
2022-10-02T01:51:34.545Z,20.85
2022-10-02T01:54:08.794Z,11.98
2022-10-02T01:56:48.850Z,24.10
2022-10-02T01:59:28.555Z,10.43
2022-10-02T02:02:23.613Z,16.35
2022-10-02T02:04:56.861Z,9.77
2022-10-02T02:07:29.405Z,17.33
2022-10-02T02:10:10.063Z,9.60
2022-10-02T02:12:43.532Z,14.50
2022-10-02T02:15:16.413Z,13.52
2022-10-02T02:18:07.476Z,16.40
2022-10-02T02:20:38.157Z,19.25
2022-10-02T02:23:08.197Z,12.15
2022-10-02T02:25:38.350Z,8.10
2022-10-02T02:28:09.346Z,11.25
2022-10-02T02:30:38.640Z,10.85
2022-10-02T02:33:09.674Z,11.40
2022-10-02T02:35:43.026Z,12.18
2022-10-02T02:38:13.871Z,9.93
2022-10-02T02:40:43.422Z,15.80
2022-10-02T02:43:18.010Z,12.88
2022-10-02T02:45:50.960Z,17.08
2022-10-02T02:51:02.542Z,12.43
2022-10-02T02:53:36.574Z,14.25
2022-10-02T02:56:05.990Z,14.00
2022-10-02T02:58:47.322Z,9.00
2022-10-02T03:01:14.456Z,20.95
2022-10-02T03:03:41.269Z,11.15
2022-10-02T03:06:18.346Z,10.75
2022-10-02T03:08:46.025Z,17.80
2022-10-02T03:11:30.876Z,19.30
2022-10-02T03:14:01.305Z,16.63
2022-10-02T03:16:40.825Z,9.88
2022-10-02T03:19:45.574Z,18.30
2022-10-02T03:22:45.937Z,17.38
2022-10-02T03:25:24.317Z,17.15
2022-10-02T03:27:57.122Z,18.50
2022-10-02T03:30:24.481Z,12.82
2022-10-02T03:32:53.550Z,24.90
2022-10-02T03:35:21.439Z,15.27
2022-10-02T03:37:51.379Z,15.30
2022-10-02T03:40:22.112Z,20.33
2022-10-02T03:42:48.965Z,17.10
2022-10-02T03:45:32.718Z,15.75
2022-10-02T03:48:02.527Z,18.05
2022-10-02T03:50:32.888Z,18.65
2022-10-02T03:53:10.218Z,17.55
2022-10-02T03:55:39.322Z,17.00
2022-10-02T03:58:13.378Z,18.50
2022-10-02T04:00:47.068Z,20.13
2022-10-02T04:03:27.297Z,14.73
2022-10-02T04:06:03.586Z,15.90
2022-10-02T04:08:35.072Z,14.98
2022-10-02T04:11:16.892Z,22.10
2022-10-02T04:13:53.086Z,19.27
2022-10-02T04:16:40.445Z,16.88
2022-10-02T04:19:10.994Z,17.20
2022-10-02T04:21:51.783Z,13.45
2022-10-02T04:24:25.920Z,12.98
2022-10-02T04:27:04.176Z,23.77
2022-10-02T04:29:38.034Z,19.85
2022-10-02T04:32:13.525Z,22.60
2022-10-02T04:34:40.930Z,23.10
2022-10-02T04:37:16.499Z,19.17
2022-10-02T04:40:08.632Z,20.50
2022-10-02T04:43:01.822Z,18.50
2022-10-02T04:45:37.462Z,21.13
2022-10-02T04:48:26.021Z,11.63
2022-10-02T04:51:34.879Z,22.33
2022-10-02T04:54:26.206Z,18.10
2022-10-02T04:57:20.683Z,10.98
2022-10-02T05:00:10.177Z,14.70
2022-10-02T05:02:50.478Z,13.10
2022-10-02T05:05:36.105Z,16.15
2022-10-02T05:08:11.240Z,14.70
2022-10-02T05:11:00.862Z,18.17
2022-10-02T05:13:43.656Z,29.58
2022-10-02T05:16:28.212Z,17.02
2022-10-02T05:19:13.562Z,18.13
2022-10-02T05:22:21.436Z,21.80
2022-10-02T05:25:06.274Z,21.88
2022-10-02T05:27:48.006Z,17.17
2022-10-02T05:30:18.959Z,18.33
2022-10-02T05:33:03.115Z,20.70
2022-10-02T05:35:35.918Z,16.55
2022-10-02T05:38:20.205Z,15.82
2022-10-02T05:41:03.858Z,18.17
2022-10-02T05:43:39.593Z,21.13
2022-10-02T05:46:11.474Z,19.55
2022-10-02T05:48:42.884Z,19.73
2022-10-02T05:51:15.375Z,9.98
2022-10-02T05:53:57.117Z,10.23
2022-10-02T05:56:32.239Z,20.08
2022-10-02T05:59:30.593Z,20.63
2022-10-02T06:01:58.279Z,14.20
2022-10-02T06:04:36.073Z,12.82
2022-10-02T06:07:08.628Z,12.93
2022-10-02T06:09:44.678Z,19.55
2022-10-02T06:12:14.798Z,14.50
2022-10-02T06:14:41.408Z,16.48
2022-10-02T06:17:19.829Z,14.95
2022-10-02T06:20:35.264Z,18.08
2022-10-02T06:23:16.421Z,11.88
2022-10-02T06:25:45.239Z,20.27
2022-10-02T06:28:19.875Z,14.63
2022-10-02T06:30:51.211Z,16.20
2022-10-02T06:33:26.162Z,10.38
2022-10-02T06:36:13.771Z,11.30
2022-10-02T06:39:00.568Z,16.10
2022-10-02T06:41:41.579Z,9.93
2022-10-02T06:44:14.822Z,10.95
2022-10-02T06:46:51.478Z,7.63
2022-10-02T06:49:50.389Z,11.98
2022-10-02T06:52:58.194Z,11.07
2022-10-02T06:55:49.001Z,5.05
2022-10-02T06:58:56.979Z,9.80
2022-10-02T07:01:46.749Z,12.65
2022-10-02T07:04:24.590Z,9.60
2022-10-02T07:07:12.494Z,10.98
2022-10-02T07:10:17.621Z,11.20
2022-10-02T07:13:07.939Z,11.27
2022-10-02T07:16:09.228Z,14.45
2022-10-02T07:18:47.694Z,14.30
2022-10-02T07:21:39.317Z,9.05
2022-10-02T07:24:15.319Z,9.90
2022-10-02T07:26:48.085Z,7.97
2022-10-02T07:29:27.361Z,7.10
2022-10-02T07:32:19.497Z,9.60
2022-10-02T07:35:00.991Z,12.43
2022-10-02T07:37:30.150Z,7.20
2022-10-02T07:40:17.229Z,4.90
2022-10-02T07:42:47.110Z,5.13
2022-10-02T07:45:36.450Z,8.50
2022-10-02T07:48:26.921Z,9.70
2022-10-02T07:51:04.157Z,8.65
2022-10-02T07:53:47.008Z,7.03
2022-10-02T07:56:19.941Z,5.22
2022-10-02T08:01:23.861Z,5.82
2022-10-02T08:04:02.640Z,2.28
2022-10-02T08:06:29.752Z,8.02
2022-10-02T08:09:11.127Z,7.32
2022-10-02T08:11:49.200Z,4.88
2022-10-02T08:14:38.162Z,4.38
2022-10-02T08:17:23.142Z,5.25
2022-10-02T08:19:50.978Z,4.10
2022-10-02T08:22:26.176Z,8.55
2022-10-02T08:24:56.801Z,5.88
2022-10-02T08:27:41.503Z,4.55
2022-10-02T08:30:12.537Z,5.32
2022-10-02T08:32:39.173Z,5.20
2022-10-02T08:35:11.974Z,5.95
2022-10-02T08:37:57.741Z,3.75
2022-10-02T08:40:55.691Z,8.82
2022-10-02T08:43:34.425Z,9.23
2022-10-02T08:46:23.458Z,8.82
2022-10-02T08:48:56.220Z,3.55
2022-10-02T08:52:00.144Z,6.25
2022-10-02T08:54:59.601Z,8.25
2022-10-02T08:57:49.668Z,9.48
2022-10-02T09:00:23.182Z,6.18
2022-10-02T09:03:15.629Z,6.57
2022-10-02T09:06:03.962Z,8.82
2022-10-02T09:08:39.562Z,6.13
2022-10-02T09:11:45.113Z,6.55
2022-10-02T09:14:16.543Z,9.73
2022-10-02T09:17:13.962Z,4.07
2022-10-02T09:20:04.182Z,4.72
2022-10-02T09:23:06.186Z,2.90
2022-10-02T09:25:51.382Z,4.00
2022-10-02T09:28:39.732Z,3.28
2022-10-02T09:31:56.826Z,6.30
2022-10-02T09:34:47.385Z,6.32
2022-10-02T09:37:18.132Z,3.95
2022-10-02T09:40:18.863Z,4.50
2022-10-02T09:43:09.996Z,3.20
2022-10-02T09:45:48.918Z,5.55
2022-10-02T09:48:23.989Z,2.40
2022-10-02T09:51:06.783Z,5.70
2022-10-02T09:53:59.726Z,3.22
2022-10-02T09:56:41.381Z,3.22
2022-10-02T09:59:30.305Z,3.70
2022-10-02T10:02:25.554Z,4.57
2022-10-02T10:05:08.747Z,3.90
2022-10-02T10:07:44.503Z,13.20
2022-10-02T10:10:42.147Z,11.95
2022-10-02T10:13:35.502Z,17.13
2022-10-02T10:16:30.425Z,8.98
2022-10-02T10:19:34.382Z,11.02
2022-10-02T10:22:34.660Z,10.13
2022-10-02T10:25:38.614Z,18.55
2022-10-02T10:28:23.836Z,7.90
2022-10-02T10:31:15.114Z,4.95
2022-10-02T10:34:05.732Z,8.88
2022-10-02T10:37:01.637Z,5.30
2022-10-02T10:39:43.301Z,3.90
2022-10-02T10:42:49.894Z,4.50
2022-10-02T10:45:38.772Z,6.60
2022-10-02T10:48:28.322Z,7.88
2022-10-02T10:51:16.479Z,5.22
2022-10-02T10:54:04.754Z,4.13
2022-10-02T10:56:54.709Z,1.90
2022-10-02T10:59:45.826Z,3.70
2022-10-02T11:02:35.877Z,3.03
2022-10-02T11:05:41.570Z,2.67
2022-10-02T11:08:23.399Z,2.53
2022-10-02T11:11:16.984Z,2.75
2022-10-02T11:13:53.726Z,2.20
2022-10-02T11:16:23.427Z,3.47
2022-10-02T11:19:08.611Z,3.38
2022-10-02T11:21:57.299Z,5.15
2022-10-02T11:24:39.128Z,10.52
2022-10-02T11:27:38.045Z,4.35
2022-10-02T11:30:10.760Z,5.10
2022-10-02T11:32:56.162Z,6.18
2022-10-02T11:35:25.905Z,4.78
2022-10-02T11:38:26.770Z,9.23
2022-10-02T11:41:08.956Z,5.72
2022-10-02T11:43:43.198Z,6.72
2022-10-02T11:46:54.099Z,3.90
2022-10-02T11:49:38.938Z,2.97
2022-10-02T11:52:36.679Z,3.75
2022-10-02T11:55:24.965Z,8.48
2022-10-02T11:58:19.016Z,6.22
2022-10-02T12:01:05.812Z,6.70
2022-10-02T12:03:39.840Z,2.60
2022-10-02T12:06:31.570Z,8.27
2022-10-02T12:09:02.815Z,3.65
2022-10-02T12:11:36.422Z,2.33
2022-10-02T12:14:29.464Z,3.67
2022-10-02T12:17:24.150Z,3.15
2022-10-02T12:20:36.686Z,9.43
2022-10-02T12:23:50.857Z,5.63
2022-10-02T12:26:39.241Z,2.30
2022-10-02T12:29:12.823Z,1.33
2022-10-02T12:31:51.412Z,2.00
2022-10-02T12:34:49.179Z,3.17
2022-10-02T12:37:29.603Z,2.15
2022-10-02T12:40:07.214Z,7.30
2022-10-02T12:43:12.932Z,5.75
2022-10-02T12:46:05.466Z,5.28
2022-10-02T12:48:54.016Z,4.18
2022-10-02T12:51:50.149Z,6.07
2022-10-02T12:54:41.315Z,3.58
2022-10-02T12:57:55.908Z,3.15
2022-10-02T13:00:40.828Z,4.65
2022-10-02T13:03:39.623Z,9.68
2022-10-02T13:06:31.770Z,9.63
2022-10-02T13:09:28.086Z,6.28
2022-10-02T13:12:20.914Z,6.22
2022-10-02T13:15:22.031Z,4.72
2022-10-02T13:17:58.695Z,3.75
2022-10-02T13:20:31.301Z,5.07
2022-10-02T13:23:14.301Z,2.90
2022-10-02T13:25:57.782Z,3.10
2022-10-02T13:28:53.766Z,2.53
2022-10-02T13:31:36.601Z,1.75
2022-10-02T13:34:09.587Z,1.42
2022-10-02T13:36:55.668Z,2.25
2022-10-02T13:39:37.101Z,1.45
2022-10-02T13:42:45.030Z,2.08
2022-10-02T13:45:29.653Z,4.85
2022-10-02T13:48:09.450Z,2.95
2022-10-02T13:50:46.425Z,10.27
2022-10-02T13:53:33.904Z,6.47
2022-10-02T13:56:15.550Z,6.43
2022-10-02T13:58:52.159Z,6.85
2022-10-02T14:01:32.497Z,12.02
2022-10-02T14:04:15.120Z,13.85
2022-10-02T14:07:05.327Z,15.50
2022-10-02T14:09:37.951Z,9.80
2022-10-02T14:12:20.441Z,9.55
2022-10-02T14:15:35.257Z,6.95
2022-10-02T14:18:26.434Z,4.10
2022-10-02T14:21:20.487Z,5.32
2022-10-02T14:24:15.494Z,3.42
2022-10-02T14:27:05.650Z,2.42
2022-10-02T14:29:45.622Z,4.95
2022-10-02T14:32:15.109Z,5.85
2022-10-02T14:35:02.621Z,7.25
2022-10-02T14:37:52.864Z,7.53
2022-10-02T14:40:20.316Z,7.15
2022-10-02T14:42:46.958Z,9.10
2022-10-02T14:45:26.842Z,8.25
2022-10-02T14:48:15.289Z,12.40
2022-10-02T14:51:19.254Z,12.32
2022-10-02T14:54:17.320Z,6.40
2022-10-02T14:56:59.558Z,4.38
2022-10-02T14:59:30.634Z,4.68
2022-10-02T15:02:07.227Z,3.33
2022-10-02T15:05:21.188Z,3.20
2022-10-02T15:10:28.433Z,2.97
2022-10-02T15:13:02.434Z,4.53
2022-10-02T15:15:36.441Z,6.03
2022-10-02T15:18:23.355Z,15.82
2022-10-02T15:21:01.950Z,23.90
2022-10-02T15:23:31.609Z,15.20
2022-10-02T15:26:02.507Z,14.85
2022-10-02T15:28:49.246Z,13.40
2022-10-02T15:31:21.248Z,10.32
2022-10-02T15:34:07.559Z,11.88
2022-10-02T15:36:48.199Z,5.50
2022-10-02T15:39:41.191Z,4.93
2022-10-02T15:42:09.612Z,6.82
2022-10-02T15:45:06.149Z,5.65
2022-10-02T15:47:38.085Z,6.82
2022-10-02T15:50:04.647Z,7.45
2022-10-02T15:52:56.088Z,6.28
2022-10-02T15:55:40.610Z,6.50
2022-10-02T15:58:28.985Z,6.82
2022-10-02T16:01:04.437Z,8.57
2022-10-02T16:03:40.915Z,5.80
2022-10-02T16:06:27.320Z,7.10
2022-10-02T16:09:03.619Z,10.13
2022-10-02T16:11:45.532Z,7.20
2022-10-02T16:14:27.486Z,5.85
2022-10-02T16:17:09.918Z,7.90
2022-10-02T16:19:39.205Z,11.50
2022-10-02T16:22:20.991Z,8.02
2022-10-02T16:24:59.699Z,11.85
2022-10-02T16:27:32.496Z,16.55
2022-10-02T16:30:12.353Z,23.80
2022-10-02T16:32:43.209Z,21.83
2022-10-02T16:35:44.912Z,20.95
2022-10-02T16:38:49.460Z,17.65
2022-10-02T16:41:28.296Z,19.60
2022-10-02T16:44:26.186Z,13.40
2022-10-02T16:47:08.641Z,14.38
2022-10-02T16:50:00.230Z,9.80
2022-10-02T16:52:33.146Z,9.57
2022-10-02T16:55:35.672Z,11.80
2022-10-02T16:58:25.230Z,19.58
2022-10-02T17:01:05.141Z,17.20
2022-10-02T17:03:45.624Z,16.45
2022-10-02T17:06:27.018Z,15.93
2022-10-02T17:08:58.624Z,11.23
2022-10-02T17:11:52.366Z,16.75
2022-10-02T17:14:25.207Z,14.43
2022-10-02T17:16:57.811Z,11.88
2022-10-02T17:19:45.798Z,10.10
2022-10-02T17:23:03.074Z,14.95
2022-10-02T17:25:43.544Z,11.85
2022-10-02T17:28:28.572Z,9.52
2022-10-02T17:31:01.490Z,7.80
2022-10-02T17:33:32.269Z,12.63
2022-10-02T17:36:13.758Z,12.05
2022-10-02T17:39:04.028Z,18.38
2022-10-02T17:41:47.379Z,34.40
2022-10-02T17:44:26.179Z,47.90
2022-10-02T17:47:25.535Z,42.15
2022-10-02T17:50:05.385Z,19.27
2022-10-02T17:52:57.058Z,20.25
2022-10-02T17:56:02.828Z,25.85
2022-10-02T17:58:35.562Z,28.73
2022-10-02T18:01:52.755Z,25.70
2022-10-02T18:04:39.562Z,19.63
2022-10-02T18:07:31.337Z,21.98
2022-10-02T18:10:42.543Z,19.55
2022-10-02T18:13:21.703Z,17.73
2022-10-02T18:16:18.574Z,20.65
2022-10-02T18:19:19.857Z,25.02
2022-10-02T18:22:16.545Z,25.90
2022-10-02T18:25:01.691Z,25.98
2022-10-02T18:27:42.142Z,19.50
2022-10-02T18:30:19.199Z,13.80
2022-10-02T18:33:07.623Z,20.70
2022-10-02T18:36:01.240Z,17.25
2022-10-02T18:39:01.253Z,13.27
2022-10-02T18:41:52.393Z,13.57
2022-10-02T18:44:35.003Z,17.70
2022-10-02T18:47:34.209Z,15.40
2022-10-02T18:50:25.334Z,15.18
2022-10-02T18:53:10.339Z,17.45
2022-10-02T18:55:48.693Z,18.23
2022-10-02T18:58:32.766Z,20.70
2022-10-02T19:00:59.559Z,25.50
2022-10-02T19:04:03.732Z,33.45
2022-10-02T19:06:34.171Z,30.65
2022-10-02T19:09:06.725Z,31.95
2022-10-02T19:11:37.161Z,35.10
2022-10-02T19:14:33.106Z,25.50
2022-10-02T19:17:05.304Z,25.60
2022-10-02T19:19:33.452Z,20.37
2022-10-02T19:22:02.086Z,19.15
2022-10-02T19:24:31.729Z,23.02
2022-10-02T19:27:01.198Z,20.35
2022-10-02T19:29:37.036Z,22.42
2022-10-02T19:32:13.090Z,22.92
2022-10-02T19:34:42.021Z,22.88
2022-10-02T19:37:13.536Z,20.35
2022-10-02T19:39:44.316Z,18.02
2022-10-02T19:42:16.899Z,18.42
2022-10-02T19:44:49.878Z,20.05
2022-10-02T19:49:50.686Z,22.45
2022-10-02T19:52:51.231Z,22.08
2022-10-02T19:55:24.866Z,18.10
2022-10-02T19:57:57.151Z,16.02
2022-10-02T20:00:23.834Z,24.27
2022-10-02T20:02:58.998Z,19.42
2022-10-02T20:05:31.646Z,20.05
2022-10-02T20:08:06.644Z,17.63
2022-10-02T20:10:35.160Z,25.20
2022-10-02T20:13:39.162Z,24.30
2022-10-02T20:16:31.612Z,22.00
2022-10-02T20:18:58.275Z,18.95
2022-10-02T20:21:37.840Z,20.83
2022-10-02T20:24:13.309Z,24.70
2022-10-02T20:26:41.394Z,22.63
2022-10-02T20:29:16.018Z,24.65
2022-10-02T20:31:53.780Z,26.13
2022-10-02T20:34:25.066Z,27.95
2022-10-02T20:37:13.357Z,22.83
2022-10-02T20:40:01.446Z,29.15
2022-10-02T20:42:39.069Z,24.15
2022-10-02T20:45:08.928Z,21.88
2022-10-02T20:47:47.689Z,27.50
2022-10-02T20:50:33.084Z,26.92
2022-10-02T20:53:21.172Z,26.38
2022-10-02T20:55:58.931Z,23.67
2022-10-02T20:58:56.315Z,24.33
2022-10-02T21:01:40.657Z,24.52
2022-10-02T21:04:32.656Z,28.02
2022-10-02T21:07:36.203Z,26.02
2022-10-02T21:10:02.817Z,27.38
2022-10-02T21:13:06.703Z,32.40
2022-10-02T21:15:52.569Z,35.85
2022-10-02T21:18:50.314Z,35.58
2022-10-02T21:21:35.995Z,33.17
2022-10-02T21:24:24.124Z,47.05
2022-10-02T21:27:02.891Z,32.35
2022-10-02T21:29:56.466Z,23.67
2022-10-02T21:32:24.690Z,26.13
2022-10-02T21:35:14.345Z,31.70
2022-10-02T21:38:06.088Z,25.60
2022-10-02T21:41:12.574Z,30.15
2022-10-02T21:43:39.414Z,31.40
2022-10-02T21:46:44.330Z,36.08
2022-10-02T21:49:41.902Z,33.42
2022-10-02T21:52:23.795Z,37.05
2022-10-02T21:55:21.262Z,35.05
2022-10-02T21:57:57.023Z,30.52
2022-10-02T22:00:28.012Z,36.50
2022-10-02T22:03:10.309Z,37.10
2022-10-02T22:06:05.396Z,40.85
2022-10-02T22:09:04.652Z,45.58
2022-10-02T22:12:09.460Z,31.45
2022-10-02T22:14:39.785Z,34.13
2022-10-02T22:17:16.014Z,30.95
2022-10-02T22:19:45.465Z,39.03
2022-10-02T22:22:15.183Z,32.33
2022-10-02T22:24:47.822Z,33.55
2022-10-02T22:27:42.986Z,34.60
2022-10-02T22:30:27.746Z,35.15
2022-10-02T22:33:22.497Z,32.17
2022-10-02T22:36:10.613Z,39.95
2022-10-02T22:38:44.249Z,47.85
2022-10-02T22:41:37.675Z,41.83
2022-10-02T22:44:16.138Z,39.95
2022-10-02T22:46:53.742Z,45.40
2022-10-02T22:50:13.188Z,38.45
2022-10-02T22:52:53.092Z,51.03
2022-10-02T22:55:24.274Z,45.30
2022-10-02T22:58:06.980Z,44.83
2022-10-02T23:00:39.529Z,53.28
2022-10-02T23:03:15.157Z,43.72
2022-10-02T23:06:07.940Z,41.97
2022-10-02T23:08:42.849Z,47.22
2022-10-02T23:11:15.527Z,42.35
2022-10-02T23:13:58.953Z,54.30
2022-10-02T23:19:15.839Z,41.15
2022-10-02T23:21:59.007Z,39.67
2022-10-02T23:24:30.661Z,39.60
2022-10-02T23:27:09.310Z,41.63
2022-10-02T23:29:59.358Z,44.65
2022-10-02T23:32:46.745Z,39.70
2022-10-02T23:35:26.889Z,54.38
2022-10-02T23:38:15.091Z,45.70
2022-10-02T23:41:35.699Z,55.95
2022-10-02T23:44:08.561Z,45.83
2022-10-02T23:47:08.078Z,42.20
2022-10-02T23:49:38.924Z,52.58
2022-10-02T23:52:43.009Z,48.83
2022-10-02T23:55:19.730Z,52.45
2022-10-02T23:58:02.388Z,55.85
